South Carolina Logo

Spartanburg, SC Single Family Real Estate Listings

536 Total Real Estate Listings * Click on table heading to sort
Date Posted Property Type Style Address Price Living Area Lot Size Price/Sq Ft.
2018-07-18 Single Family Traditional 415 Ransdell Spartanburg, SC 29307 $200,000 2,599 sq. ft. 22,216 sq. ft. $77
2018-07-18 Single Family Bungalow 241 Cedar Spartanburg, SC 29307 $74,979 1,199 sq. ft. $63
2018-07-18 Single Family Traditional 215 Windigo Spartanburg, SC 29306 $147,990 1,999 sq. ft. 8,712 sq. ft. $74
2018-07-17 Single Family Ranch 105 Manchester Spartanburg, SC 29301 $179,923 1,999 sq. ft. 17,860 sq. ft. $90
2018-07-16 Single Family Colonial 3550 Glenn Spring Spartanburg, SC 29302 $392,500 3,799 sq. ft. 86,684 sq. ft. $103
2018-07-13 Single Family Bungalow 7 Forest Mill Spartanburg, SC 29301 $69,900 999 sq. ft. 9,583 sq. ft. $70
2018-07-13 Single Family Craftsman 412 Shafer Spartanburg, SC 29301 $297,400 2,999 sq. ft. 10,454 sq. ft. $99
2018-07-12 Single Family Traditional 565 Chastine Spartanburg, SC 29301 $139,900 1,399 sq. ft. 7,841 sq. ft. $100
2018-07-12 Single Family Craftsman 650 Cub Branch Spartanburg, SC 29301 $260,900 2,199 sq. ft. 8,712 sq. ft. $119
2018-07-12 Single Family Craftsman 646 Cub Branch Spartanburg, SC 29301 $246,900 1,999 sq. ft. 8,712 sq. ft. $124
2018-07-11 Single Family Ranch 112 Lanford Spartanburg, SC 29301 $169,900 1,999 sq. ft. 28,314 sq. ft. $85
2018-07-09 Single Family Traditional 67 Casey Spartanburg, SC 29301 $174,900 1,799 sq. ft. 27,443 sq. ft. $97
2018-07-08 Single Family European 308 Rolling Meadow Spartanburg, SC 29303 $295,000 2,799 sq. ft. 25,265 sq. ft. $105
2018-07-07 Single Family Traditional 230 Longleaf Spartanburg, SC 29301 $265,000 2,399 sq. ft. 44,867 sq. ft. $110
2018-07-07 Single Family Cape Cod 307 Londonberry Spartanburg, SC 29301 $189,900 2,399 sq. ft. $79
2018-07-06 Single Family European 216 Woodglen Spartanburg, SC 29301 $399,900 3,799 sq. ft. 36,155 sq. ft. $105
2018-07-06 Single Family Traditional 227 Hillsboro Spartanburg, SC 29301 $389,500 3,399 sq. ft. 43,124 sq. ft. $115
2018-07-06 Single Family Traditional 117 North River Hills Spartanburg, SC 29303 $224,900 1,999 sq. ft. 15,246 sq. ft. $113
2018-07-05 Single Family Bungalow 286 Spring Spartanburg, SC 29302 $132,000 1,199 sq. ft. 10,454 sq. ft. $110
2018-07-03 Single Family Contemporary 347 Sorley Spartanburg, SC 29323 $249,900 2,599 sq. ft. 24,829 sq. ft. $96
2018-07-01 Single Family Ranch 538 Pierpont Avenue Spartanburg, SC 29303 $119,900 1,599 sq. ft. 14,810 sq. ft. $75
2018-06-30 Single Family Ranch 755 California Spartanburg, SC 29303 $115,000 1,399 sq. ft. $82
2018-06-27 Single Family Ranch 177 Continental Spartanburg, SC 29302 $142,700 3,199 sq. ft. 41,382 sq. ft. $45
2018-06-27 Single Family Traditional 634 Mosswood Spartanburg, SC 29301 $384,000 2,999 sq. ft. 18,295 sq. ft. $128
2018-06-27 Single Family Traditional 205 Julien Spartanburg, SC 29301 $435,000 3,999 sq. ft. 31,799 sq. ft. $109
2018-06-27 Single Family Traditional 256 Cotton Creek Spartanburg, SC 29302 $142,990 1,999 sq. ft. 13,504 sq. ft. $72
2018-06-27 Single Family Traditional 244 Cotton Creek Spartanburg, SC 29302 $140,990 1,999 sq. ft. 8,276 sq. ft. $71
2018-06-27 Single Family Traditional 236 Cotton Creek Spartanburg, SC 29302 $126,990 1,599 sq. ft. 8,276 sq. ft. $79
2018-06-27 Single Family Craftsman 350 Serendipity Spartanburg, SC 29301 $349,990 3,799 sq. ft. 12,632 sq. ft. $92
2018-06-27 Single Family Craftsman 584 Serendipity Spartanburg, SC 29301 $295,990 2,599 sq. ft. 8,276 sq. ft. $114
2018-06-24 Single Family Ranch 607 Winsmith Spartanburg, SC 29306 $74,900 1,199 sq. ft. 19,166 sq. ft. $62
2018-06-23 Single Family Bungalow 213 Bon Air Spartanburg, SC 29303 $125,000 1,399 sq. ft. 10,019 sq. ft. $89
2018-06-22 Single Family Traditional 618 Andre Spartanburg, SC 29301 $175,000 2,399 sq. ft. 15,682 sq. ft. $73
2018-06-22 Single Family Ranch 244 Bennett Spartanburg, SC 29307 $210,000 1,999 sq. ft. 23,958 sq. ft. $105
2018-06-22 Single Family Ranch 109 Goldenrod Spartanburg, SC 29369 $165,000 1,599 sq. ft. 29,185 sq. ft. $103
2018-06-21 Single Family Traditional 681 Cowford Bridge Spartanburg, SC 29302 $275,000 1,799 sq. ft. 827,204 sq. ft. $153
2018-06-20 Single Family Ranch 207 Ellington Spartanburg, SC 29301 $159,500 1,599 sq. ft. $100
2018-06-19 Single Family Bungalow 41 Oak Spartanburg, SC 29303 $40,000 999 sq. ft. 21,780 sq. ft. $40
2018-06-18 Single Family Traditional 114 Club Pointe Spartanburg, SC 29302 $695,000 4,999 sq. ft. 44,431 sq. ft. $139
2018-06-15 Single Family Ranch 205 Beechwood Spartanburg, SC 29307 $249,900 2,799 sq. ft. 58,806 sq. ft. $89
2018-06-15 Single Family Traditional 104 Cypress Spartanburg, SC 29307 $233,500 2,399 sq. ft. 46,609 sq. ft. $97
2018-06-14 Single Family Traditional 438 Maplecroft Spartanburg, SC 29303 $215,000 2,399 sq. ft. 18,731 sq. ft. $90
2018-06-14 Single Family Mobile-Perm. Foundation 1218 Carman Spartanburg, SC 29303 $129,900 1,799 sq. ft. 65,340 sq. ft. $72
2018-06-13 Single Family Traditional 103 Vista Hill Spartanburg, SC 29302 $143,490 1,799 sq. ft. 13,068 sq. ft. $80
2018-06-12 Single Family Traditional 504 Carolina Club Spartanburg, SC 29306 $489,000 4,799 sq. ft. 35,719 sq. ft. $102
2018-06-11 Single Family Traditional 440 Oakley Spartanburg, SC 29301 $333,000 3,199 sq. ft. 27,007 sq. ft. $104
2018-06-11 Single Family Traditional 221 Creekridge Spartanburg, SC 29301 $315,000 2,999 sq. ft. 54,014 sq. ft. $105
2018-06-11 Single Family Ranch 327 Willow Oaks Spartanburg, SC 29301 $74,900 2,199 sq. ft. 15,246 sq. ft. $34
2018-06-10 Single Family Traditional 354 Hidden Creek Spartanburg, SC 29306 $489,000 4,199 sq. ft. 36,155 sq. ft. $116
2018-06-08 Single Family Traditional 317 Ashwick Spartanburg, SC 29301 $389,900 3,199 sq. ft. 37,897 sq. ft. $122
2018-06-08 Single Family Ranch 548 Bonanza Spartanburg, SC 29307 $179,000 2,399 sq. ft. 47,916 sq. ft. $75
2018-06-07 Single Family 141 George Spartanburg, SC 29306 $9,900 999 sq. ft. $10
2018-06-06 Single Family Traditional 366 Milhaven Spartanburg, SC 29301 $254,000 2,599 sq. ft. 15,682 sq. ft. $98
2018-06-06 Single Family Ranch 122 Saint James Spartanburg, SC 29301 $169,923 1,999 sq. ft. 20,038 sq. ft. $85
2018-06-05 Single Family Contemporary 113 Vista Hill Spartanburg, SC 29302 $137,490 1,599 sq. ft. 11,326 sq. ft. $86
2018-06-05 Single Family Ranch 331 Burton Spartanburg, SC 29302 $418,000 4,599 sq. ft. 262,667 sq. ft. $91
2018-06-04 Single Family Ranch 121 Unity Spartanburg, SC 29307 $94,900 1,399 sq. ft. 16,117 sq. ft. $68
2018-06-04 Single Family Bungalow 2561 Whitestone Spartanburg, SC 29302 $105,000 1,399 sq. ft. 141,134 sq. ft. $75
2018-06-02 Single Family Traditional 807 Inverness Spartanburg, SC 29306 $489,000 4,199 sq. ft. 32,234 sq. ft. $116
2018-06-01 Single Family Traditional 204 Wycliff Spartanburg, SC 29301 $229,000 2,999 sq. ft. 12,632 sq. ft. $76
2018-05-31 Single Family Bungalow 141 Cardinal Spartanburg, SC 29302 $119,777 1,199 sq. ft. 9,148 sq. ft. $100
2018-05-31 Single Family Traditional 226 Longleaf Spartanburg, SC 29301 $348,500 2,799 sq. ft. 40,075 sq. ft. $125
2018-05-25 Single Family Craftsman 738 Corwallis Spartanburg, SC 29306 $295,000 2,599 sq. ft. 24,829 sq. ft. $114
2018-05-24 Single Family Traditional 332 Kennesaw Spartanburg, SC 29301 $385,000 2,799 sq. ft. 20,038 sq. ft. $138
2018-05-23 Single Family Ranch 810 West Spartanburg, SC 29306 $229,000 1,999 sq. ft. 718,740 sq. ft. $115
2018-05-23 Single Family Traditional 537 Magnolia Blossom Spartanburg, SC 29301 $515,000 3,999 sq. ft. 58,806 sq. ft. $129
2018-05-22 Single Family Ranch 690 Thompson Chapel Spartanburg, SC 29307 $450,000 2,799 sq. ft. 1,089,000 sq. ft. $161
2018-05-22 Single Family Bungalow 812 Chesnee Spartanburg, SC 29307 $157,900 1,599 sq. ft. 74,488 sq. ft. $99
2018-05-21 Single Family Traditional 110 Roswell Spartanburg, SC 29307 $200,000 2,599 sq. ft. 16,117 sq. ft. $77
2018-05-17 Single Family Traditional 311 Holly Spartanburg, SC 29301 $177,777 2,199 sq. ft. 18,295 sq. ft. $81
2018-05-16 Single Family Ranch 172 Woodglen Spartanburg, SC 29301 $304,900 2,999 sq. ft. 51,401 sq. ft. $102
2018-05-16 Single Family Traditional 1708 Waterway Spartanburg, SC 29301 $299,900 3,199 sq. ft. 34,412 sq. ft. $94
2018-05-16 Single Family Traditional 528 Serendipity Spartanburg, SC 29301 $226,400 2,999 sq. ft. $75
2018-05-15 Single Family Traditional 375 Promised Land Spartanburg, SC 29306 $127,000 1,599 sq. ft. 4,356 sq. ft. $79
2018-05-15 Single Family Ranch 104 Quail Spartanburg, SC 29302 $117,000 1,999 sq. ft. 23,522 sq. ft. $59
2018-05-15 Single Family Traditional 207 Woodlake Spartanburg, SC 29301 $499,900 3,399 sq. ft. 43,124 sq. ft. $147
2018-05-14 Single Family Traditional 151 Sunset Spartanburg, SC 29356 $399,900 2,999 sq. ft. 158,994 sq. ft. $133
2018-05-12 Single Family Craftsman 208 Woodlake Spartanburg, SC 29301 $599,900 4,399 sq. ft. 46,174 sq. ft. $136
2018-05-11 Single Family European 362 Twin Oaks Spartanburg, SC 29306 $599,900 4,799 sq. ft. 62,726 sq. ft. $125
2018-05-11 Single Family Traditional 4 Yeamans Hall Spartanburg, SC 29306 $689,000 5,399 sq. ft. 35,719 sq. ft. $128
2018-05-11 Single Family Traditional 361 Killarney Lake Spartanburg, SC 29369 $459,900 5,599 sq. ft. 45,302 sq. ft. $82
2018-05-11 Single Family Traditional 404 Richmond Spartanburg, SC 29301 $599,900 4,999 sq. ft. 30,492 sq. ft. $120
2018-05-11 Single Family Contemporary 1029 Woodburn Spartanburg, SC 29302 $725,000 4,799 sq. ft. 40,946 sq. ft. $151
2018-05-11 Single Family Traditional 825 Southern Magnolia Spartanburg, SC 29301 $549,900 3,599 sq. ft. $153
2018-05-11 Single Family European 1004 Four Mile Branch Spartanburg, SC 29302 $2,475,000 7,000 sq. ft. 232,175 sq. ft. $354
2018-05-11 Single Family Contemporary 1340 Pinecrest Spartanburg, SC 29302 $649,000 3,799 sq. ft. 60,113 sq. ft. $171
2018-05-11 Single Family Ranch 3071 Carolina Country Club Spartanburg, SC 29306 $287,900 2,999 sq. ft. 108,900 sq. ft. $96
2018-05-11 Single Family Traditional 408 Oakley Spartanburg, SC 29301 $339,000 3,399 sq. ft. 28,314 sq. ft. $100
2018-05-11 Single Family Colonial 492 Mockingbird Spartanburg, SC 29307 $349,999 3,599 sq. ft. $97
2018-05-11 Single Family Traditional 21 Glen Eagle Spartanburg, SC 29301 $218,900 2,199 sq. ft. 27,878 sq. ft. $100
2018-05-11 Single Family Traditional 431 Abington Spartanburg, SC 29301 $190,000 2,799 sq. ft. 6,970 sq. ft. $68
2018-05-11 Single Family Contemporary 318 Saranac Spartanburg, SC 29307 $274,500 2,799 sq. ft. 42,253 sq. ft. $98
2018-05-11 Single Family Contemporary 230 Windigo Spartanburg, SC 29306 $149,990 2,199 sq. ft. 8,712 sq. ft. $68
2018-05-11 Single Family Traditional 32 Dewridge Spartanburg, SC 29301 $193,900 2,199 sq. ft. 43,560 sq. ft. $88
2018-05-11 Single Family Traditional 306 Round Ridge Spartanburg, SC 29302 $157,800 2,399 sq. ft. 18,731 sq. ft. $66
2018-05-11 Single Family Contemporary 228 Windigo Spartanburg, SC 29306 $150,990 1,999 sq. ft. 8,712 sq. ft. $76
2018-05-11 Single Family Contemporary 326 Carnahan Spartanburg, SC 29306 $143,990 1,799 sq. ft. 8,712 sq. ft. $80
2018-05-11 Single Family Contemporary 227 Windigo Spartanburg, SC 29306 $149,990 2,199 sq. ft. 8,712 sq. ft. $68
2018-05-11 Single Family Contemporary 229 Windigo Spartanburg, SC 29306 $141,990 1,799 sq. ft. 8,712 sq. ft. $79
2018-05-11 Single Family Contemporary 320 Carnahan Spartanburg, SC 29306 $143,990 1,799 sq. ft. 11,761 sq. ft. $80
2018-05-11 Single Family Contemporary 325 Carnahan Spartanburg, SC 29306 $143,990 1,799 sq. ft. 9,583 sq. ft. $80
2018-05-11 Single Family Contemporary 130 Vermillian Spartanburg, SC 29306 $137,490 1,799 sq. ft. 10,019 sq. ft. $76
2018-05-11 Single Family Traditional 131 Evvalane Spartanburg, SC 29302 $139,990 1,799 sq. ft. 4,792 sq. ft. $78
2018-05-11 Single Family Ranch 204 Knollwood Spartanburg, SC 29301 $70,000 999 sq. ft. 32,670 sq. ft. $70
2018-05-11 Single Family Bungalow 643 Maywood Spartanburg, SC 29303 $84,900 999 sq. ft. 8,712 sq. ft. $85
2018-05-10 Single Family Traditional 857 Oakcrest Spartanburg, SC 29301 $550,000 4,199 sq. ft. 33,541 sq. ft. $131
2018-05-10 Single Family Traditional 736 Maple Spartanburg, SC 29302 $254,900 2,199 sq. ft. 8,276 sq. ft. $116
2018-05-10 Single Family 433 Melbourne Spartanburg, SC 29301 $174,967 2,199 sq. ft. 6,970 sq. ft. $80
2018-05-10 Single Family Contemporary 327 Carnahan Spartanburg, SC 29306 $148,990 1,999 sq. ft. 8,712 sq. ft. $75
2018-05-10 Single Family Contemporary 134 Evvalane Spartanburg, SC 29302 $144,490 1,999 sq. ft. 4,792 sq. ft. $72
2018-05-10 Single Family Traditional 130 Evvalane Spartanburg, SC 29302 $128,490 1,399 sq. ft. 6,534 sq. ft. $92
2018-05-10 Single Family Traditional 126 Evvalane Spartanburg, SC 29302 $139,490 1,799 sq. ft. 5,227 sq. ft. $78
2018-05-10 Single Family Contemporary 124 Evvalane Spartanburg, SC 29302 $149,490 1,999 sq. ft. 4,792 sq. ft. $75
2018-05-10 Single Family Traditional 513 Holly Run Spartanburg, SC 29303 $112,000 1,199 sq. ft. 8,712 sq. ft. $93
2018-05-10 Single Family Traditional 13 Lynwood Spartanburg, SC 29302 $46,000 999 sq. ft. $46
2018-03-17 Single Family Traditional 135 Eventine Spartanburg, SC 29316 $208,641 1,999 sq. ft. 5,227 sq. ft. $104
2018-03-16 Single Family Craftsman 120 Connecticut Spartanburg, SC 29302 $250,000 2,199 sq. ft. 3,485 sq. ft. $114
2018-03-14 Single Family Patio 293 Zimmerman Lake Spartanburg, SC 29306 $184,777 1,799 sq. ft. 293,159 sq. ft. $103
2018-03-09 Single Family Traditional 2 Cateswood Spartanburg, SC 29302 $575,000 4,399 sq. ft. 30,056 sq. ft. $131
2018-03-06 Single Family Craftsman 276 Autumn Glen Spartanburg, SC 29303 $222,497 2,599 sq. ft. 14,375 sq. ft. $86
2018-02-21 Single Family Craftsman 284 Autumn Glen Spartanburg, SC 29303 $197,750 1,799 sq. ft. 16,553 sq. ft. $110
2018-02-21 Single Family Traditional 920 Thomas Spartanburg, SC 29302 $680,000 5,199 sq. ft. $131
2018-02-21 Single Family Traditional 10 Four Mile Branch Spartanburg, SC 29302 $549,500 4,399 sq. ft. 54,014 sq. ft. $125
2018-02-16 Single Family Contemporary 201 Carolina Club Spartanburg, SC 29306 $439,000 4,399 sq. ft. 39,204 sq. ft. $100
2018-02-13 Single Family European 101 Lakeridge Spartanburg, SC 29301 $650,000 7,000 sq. ft. 226,512 sq. ft. $93
2018-02-12 Single Family Traditional 211 Indian Wells Spartanburg, SC 29306 $479,900 4,599 sq. ft. 26,136 sq. ft. $104
2018-01-28 Single Family 707 Pecan Tree Spartanburg, SC 29306 $895,000 4,599 sq. ft. 47,916 sq. ft. $195
2018-01-22 Single Family Colonial 8891 Warren H. Abernathy Spartanburg, SC 29301 $1,400,000 5,799 sq. ft. 779,724 sq. ft. $241
2018-01-15 Single Family Traditional 140 Evvalane Spartanburg, SC 29302 $133,490 1,599 sq. ft. 6,534 sq. ft. $83
2017-12-20 Single Family Traditional 118 Woodridge Spartanburg, SC 29301 $450,000 3,999 sq. ft. 32,234 sq. ft. $113
2017-11-22 Single Family Colonial 1231 Mount Zion Spartanburg, SC 29303 $369,900 3,399 sq. ft. 149,411 sq. ft. $109
2017-11-03 Single Family Bungalow 101 Allen Spartanburg, SC 29303 $59,000 1,599 sq. ft. 7,841 sq. ft. $37
2017-11-02 Single Family Bungalow 128 Oxford Spartanburg, SC 29301 $68,500 1,399 sq. ft. 14,375 sq. ft. $49
2017-10-31 Single Family Traditional 11 Heritage Spartanburg, SC 29307 $15,000 1,599 sq. ft. $9
2017-10-25 Single Family Ranch; Traditional 126 Hawk Creek Spartanburg, SC 29301 $369,900 2,799 sq. ft. 28,750 sq. ft. $132
2017-10-20 Single Family Traditional 113 Viewmont Spartanburg, SC 29334 $211,375 2,199 sq. ft. 8,276 sq. ft. $96
2017-10-09 Single Family Traditional 866 Inverness Spartanburg, SC 29306 $519,900 4,599 sq. ft. 30,928 sq. ft. $113
2017-09-13 Single Family Contemporary 151 Saint Andrews Spartanburg, SC 29306 $875,000 6,999 sq. ft. 104,544 sq. ft. $125
2017-08-18 Single Family Log 275 Montgomery Spartanburg, SC 29302 $2,750,000 5,199 sq. ft. 1,010,592 sq. ft. $529
2017-08-02 Single Family Traditional 1031 Andrews Farm Spartanburg, SC 29302 $850,000 3,999 sq. ft. 162,479 sq. ft. $213
2017-07-07 Single Family 159 Saint Andrews Spartanburg, SC 29306 $795,000 6,399 sq. ft. 37,897 sq. ft. $124
2017-07-05 Single Family Traditional; European 1243 Shadowood Spartanburg, SC 29301 $595,000 7,000 sq. ft. 142,006 sq. ft. $85
2017-06-30 Single Family Victorian 1551 Highway 56 Spartanburg, SC 29306 $599,500 3,999 sq. ft. 435,600 sq. ft. $150
2017-06-01 Single Family Traditional 877 Inverness Spartanburg, SC 29306 $687,500 5,799 sq. ft. 27,443 sq. ft. $119
2017-04-19 Single Family Traditional 306 Mossycup Oak Spartanburg, SC 29306 $674,900 5,199 sq. ft. 34,848 sq. ft. $130
2017-04-10 Single Family Traditional 410 Mabry Spartanburg, SC 29307 $194,900 1,999 sq. ft. 31,799 sq. ft. $98
2017-04-04 Single Family Traditional 207 Muirfield Spartanburg, SC 29306 $599,000 5,999 sq. ft. 31,363 sq. ft. $100
2017-03-30 Single Family Ranch 48 Willowood Dr Spartanburg, SC 29303 $112,900 1,400 sq. ft. $81
2017-03-30 Single Family Colonial; Traditional 605 Crystal Drive Spartanburg, SC 29302 $499,900 4,278 sq. ft. 15,682 sq. ft. $117
2017-03-30 Single Family Ranch 5003 Weitz Street Spartanburg, SC 29301 $139,900 1,780 sq. ft. $79
2017-03-30 Single Family Bungalow 410 Shore Drive Spartanburg, SC 29302 $87,000 1,422 sq. ft. 17,424 sq. ft. $61
2017-03-30 Single Family Traditional 900 Acorn Place Ridge Spartanburg, SC 29301 $519,900 4,494 sq. ft. 47,045 sq. ft. $116
2017-03-30 Single Family Ranch 152 Revere Circle Spartanburg, SC 29302 $87,500 1,324 sq. ft. 18,731 sq. ft. $66
2017-03-30 Single Family Ranch 2375 Pine Street Spartanburg, SC 29302 $84,900 1,732 sq. ft. 19,602 sq. ft. $49
2017-03-30 Single Family Craftsman 739 Rose Penny Lane Spartanburg, SC 29301 $276,000 2,793 sq. ft. 6,534 sq. ft. $99
2017-03-29 Single Family Ranch 251 Sunnyview Circle Spartanburg, SC 29307 $59,900 2,333 sq. ft. $26
2017-03-29 Single Family Ranch 121 Len Court Spartanburg, SC 29303 $134,000 1,621 sq. ft. $83
2017-03-29 Single Family Traditional 463 Blairwood Ct Spartanburg, SC 29303 $113,900 1,050 sq. ft. $108
2017-03-29 Single Family Traditional 328 Round Ridge Spartanburg, SC 29302 $279,000 2,738 sq. ft. $102
2017-03-29 Single Family Traditional 409 Sweetbay Terrace Spartanburg, SC 29306 $649,900 5,612 sq. ft. 35,284 sq. ft. $116
2017-03-28 Single Family Ranch 234 Fairforest Road Spartanburg, SC 29301 $48,450 1,164 sq. ft. 26,136 sq. ft. $42
2017-03-28 Single Family Traditional 146 Riverrun Drive Spartanburg, SC 29303 $154,900 1,623 sq. ft. 14,810 sq. ft. $95
2017-03-28 Single Family Ranch 731 Asheville Hwy Spartanburg, SC 29303 $104,900 2,549 sq. ft. 43,124 sq. ft. $41
2017-03-27 Single Family Ranch 105 Monroe Road Spartanburg, SC 29307 $229,900 2,668 sq. ft. 22,651 sq. ft. $86
2017-03-27 Single Family Ranch 128 Clemson Street Spartanburg, SC 29307 $113,900 1,500 sq. ft. 23,087 sq. ft. $76
2017-03-26 Single Family Ranch 182 Woodley Spartanburg, SC 29306 $89,900 1,213 sq. ft. 21,344 sq. ft. $74
2017-03-25 Single Family Ranch 150 Gossett Road Spartanburg, SC 29307 $96,500 1,024 sq. ft. $94
2017-03-25 Single Family 2245 Southport Road Spartanburg, SC 29302 $59,000 1,288 sq. ft. 46,609 sq. ft. $46
2017-03-24 Single Family Ranch 221 Pineville Road Spartanburg, SC 29307 $360,000 3,519 sq. ft. $102
2017-03-24 Single Family Bungalow 835 Damson Plum Spartanburg, SC 29301 $67,900 1,182 sq. ft. $57
2017-03-24 Single Family Traditional 466 Webber Road Spartanburg, SC 29307 $229,900 2,713 sq. ft. 23,958 sq. ft. $85
2017-03-24 Single Family Traditional 239 Horseshoe Lake Drive Spartanburg, SC 29306 $499,000 4,644 sq. ft. 28,750 sq. ft. $107
2017-03-24 Single Family Bungalow 643 Maywood St Spartanburg, SC 29303 $37,500 912 sq. ft. 8,712 sq. ft. $41
2017-03-24 Single Family Ranch; Traditional 301 Peach Valley Drive Spartanburg, SC 29303 $139,900 1,890 sq. ft. $74
2017-03-23 Single Family Ranch 444 Royal Oak Drive Spartanburg, SC 29302 $139,500 1,648 sq. ft. $85
2017-03-23 Single Family Traditional 1060 Andrews Farm Road Spartanburg, SC 29302 $425,000 3,653 sq. ft. 87,120 sq. ft. $116
2017-03-22 Single Family Traditional; Tri-Level 325 Woodley Rd Spartanburg, SC 29306 $149,979 1,775 sq. ft. 20,038 sq. ft. $84
2017-03-22 Single Family 490 Barnwell Road Spartanburg, SC 29303 $89,900 1,575 sq. ft. 11,326 sq. ft. $57
2017-03-22 Single Family Traditional 1391 Highway 56 Spartanburg, SC 29302 $110,000 1,275 sq. ft. 94,090 sq. ft. $86
2017-03-21 Single Family Traditional 214 Briarcreek Dr Spartanburg, SC 29301 $189,900 2,457 sq. ft. 32,234 sq. ft. $77
2017-03-21 Single Family Bungalow 441 Breeze Street Spartanburg, SC 29301 $31,900 837 sq. ft. $38
2017-03-21 Single Family 575 Farley Avenue Spartanburg, SC 29301 $45,900 1,426 sq. ft. $32
2017-03-20 Single Family Colonial; Contemporary; Traditional; Charleston 718 Maple St Spartanburg, SC 29302 $374,900 2,893 sq. ft. 13,504 sq. ft. $130
2017-03-20 Single Family Bungalow; Traditional 105 Overbrook Circle Spartanburg, SC 29306 $90,000 1,491 sq. ft. 15,682 sq. ft. $60
2017-03-20 Single Family Ranch 165 Huskey Ct Spartanburg, SC 29303 $105,000 1,520 sq. ft. 48,352 sq. ft. $69
2017-03-20 Single Family Ranch 716 Lucerne Drive Spartanburg, SC 29302 $135,000 1,540 sq. ft. 43,996 sq. ft. $88
2017-03-18 Single Family Ranch 209 Gordon Dr Spartanburg, SC 29301 $139,000 2,332 sq. ft. 20,473 sq. ft. $60
2017-03-17 Single Family Traditional 274 Wycliff Drive Spartanburg, SC 29301 $205,000 2,550 sq. ft. 10,019 sq. ft. $80
2017-03-17 Single Family Craftsman 109 Green River Rd Spartanburg, SC 29307 $154,900 1,408 sq. ft. 21,344 sq. ft. $110
2017-03-17 Single Family Craftsman 117 Green River Rd Spartanburg, SC 29307 $175,900 1,773 sq. ft. 21,780 sq. ft. $99
2017-03-17 Single Family Ranch 848 Beverly Drive Spartanburg, SC 29303 $109,900 1,732 sq. ft. $63
2017-03-17 Single Family Colonial; Cottage 1430 Maryland Ave Spartanburg, SC 29302 $449,900 3,658 sq. ft. 204,732 sq. ft. $123
2017-03-17 Single Family Colonial; Rustic; Charleston 228 Edwards Ave Spartanburg, SC 29306 $45,000 1,148 sq. ft. 17,424 sq. ft. $39
2017-03-17 Single Family Ranch 118 Coldspring Dr Spartanburg, SC 29301 $167,970 1,417 sq. ft. 23,087 sq. ft. $119
2017-03-17 Single Family Ranch 131 Mcarthur Street Spartanburg, SC 29302 $99,900 1,913 sq. ft. 16,117 sq. ft. $52
2017-03-17 Single Family Traditional 610 Boyd Street Spartanburg, SC 29302 $200,000 1,688 sq. ft. $118
2017-03-17 Single Family Traditional 307 Kennesaw Court Spartanburg, SC 29301 $500,000 4,026 sq. ft. 20,909 sq. ft. $124
2017-03-17 Single Family Traditional 106 Roswell Terrace Spartanburg, SC 29307 $169,900 2,439 sq. ft. 16,988 sq. ft. $70
2017-03-16 Single Family Traditional 344 Swamp Fox Road Spartanburg, SC 29306 $225,000 1,952 sq. ft. 29,185 sq. ft. $115
2017-03-15 Single Family Ranch 113 Sims Ln Spartanburg, SC 29307 $109,900 1,594 sq. ft. $69
2017-03-15 Single Family Ranch 490 Carolyn Drive Spartanburg, SC 29306 $94,900 1,627 sq. ft. $58
2017-03-15 Single Family Tri-Level 162 Henson St Spartanburg, SC 29307 $189,900 2,940 sq. ft. 42,253 sq. ft. $65
2017-03-15 Single Family Traditional 229 Bent Oak Way Spartanburg, SC 29301 $347,000 3,288 sq. ft. 34,848 sq. ft. $106
2017-03-14 Single Family Traditional 28 Meadowlark Ln Spartanburg, SC 29306 $114,900 1,262 sq. ft. 33,977 sq. ft. $91
2017-03-14 Single Family Traditional 609 Slippery Moss Dr Spartanburg, SC 29303 $129,900 1,225 sq. ft. $106
2017-03-14 Single Family Tri-Level 408 Springwood Dr Spartanburg, SC 29302 $158,000 2,287 sq. ft. 29,621 sq. ft. $69
2017-03-13 Single Family Bungalow 765 Palmetto St Spartanburg, SC 29302 $209,000 1,828 sq. ft. $114
2017-03-13 Single Family Traditional 1027 Glendalyn Circle Spartanburg, SC 29302 $475,000 4,319 sq. ft. 40,511 sq. ft. $110
2017-03-13 Single Family Traditional 576 Verdae Drive Spartanburg, SC 29301 $499,900 3,300 sq. ft. 19,166 sq. ft. $151
2017-03-12 Single Family Traditional 117 Hidden Ridge Drive Spartanburg, SC 29301 $171,900 1,621 sq. ft. 5,663 sq. ft. $106
2017-03-12 Single Family Tri-Level 512 Maverick Circle Spartanburg, SC 29307 $295,000 3,589 sq. ft. 28,314 sq. ft. $82
2017-03-12 Single Family Traditional 208 Thornhill Drive Spartanburg, SC 29301 $277,900 3,047 sq. ft. 33,977 sq. ft. $91
2017-03-11 Single Family Ranch 132 Allen Ave Spartanburg, SC 29303 $78,900 1,723 sq. ft. 10,454 sq. ft. $46
2017-03-11 Single Family Ranch 900 Lucerne Dr Spartanburg, SC 29302 $162,500 1,836 sq. ft. 22,651 sq. ft. $89
2017-03-10 Single Family Ranch 167 Mount Zion Road Spartanburg, SC 29303 $153,900 2,024 sq. ft. 27,007 sq. ft. $76
2017-03-10 Single Family Ranch 466 Zellen Drive Spartanburg, SC 29303 $139,900 1,566 sq. ft. $89
2017-03-10 Single Family Cottage 517 Deerview Lane Spartanburg, SC 29302 $223,777 2,274 sq. ft. 25,265 sq. ft. $98
2017-03-10 Single Family Traditional 114 Rosewood Lane Spartanburg, SC 29302 $780,000 7,720 sq. ft. 59,677 sq. ft. $101
2017-03-10 Single Family 1639 Hillcrest Blvd Spartanburg, SC 29307 $144,900 2,100 sq. ft. $69
2017-03-10 Single Family Traditional 838 Shoresbrook Drive Spartanburg, SC 29301 $186,500 2,119 sq. ft. 13,068 sq. ft. $88
2017-03-10 Single Family Ranch 202 Woodlake Drive Spartanburg, SC 29301 $348,000 3,656 sq. ft. 87,120 sq. ft. $95
2017-03-09 Single Family Colonial; Traditional 245 Heathwood Spartanburg, SC 29307 $215,000 2,869 sq. ft. $75
2017-03-09 Single Family Ranch 257 Holly Drive Spartanburg, SC 29301 $134,000 1,810 sq. ft. 16,553 sq. ft. $74
2017-03-09 Single Family Bungalow 587 Farley Avenue Spartanburg, SC 29306 $39,900 1,560 sq. ft. $26
2017-03-09 Single Family Traditional 231 East Corley Lane Spartanburg, SC 29303 $95,000 1,310 sq. ft. 8,276 sq. ft. $73
2017-03-09 Single Family Country 261 Riva Ridge Rd Spartanburg, SC 29302 $239,900 1,920 sq. ft. 142,441 sq. ft. $125
2017-03-09 Single Family Ranch 116 Coldbrook Spartanburg, SC 29306 $89,900 1,144 sq. ft. 21,344 sq. ft. $79
2017-03-09 Single Family Cape Cod 1866 Old Charlotte Road Spartanburg, SC 29307 $155,000 2,200 sq. ft. 15,246 sq. ft. $70
2017-03-09 Single Family Traditional; European 710 Pecan Tree Court Spartanburg, SC 29306 $679,000 5,136 sq. ft. 36,155 sq. ft. $132
2017-03-08 Single Family Traditional 514 Otis Spartanburg, SC 29302 $1,150,000 5,799 sq. ft. 34,848 sq. ft. $198
2017-03-08 Single Family Colonial 301 Collingwood Ln Spartanburg, SC 29301 $134,900 1,824 sq. ft. 6,970 sq. ft. $74
2017-03-08 Single Family Traditional 514 Otis Boulevard Spartanburg, SC 29302 $1,150,000 5,653 sq. ft. 34,848 sq. ft. $203
2017-03-07 Single Family Traditional 553 Saxon Ave Spartanburg, SC 29301 $74,900 1,970 sq. ft. $38
2017-03-07 Single Family Bungalow 511 Pinckney Ct Spartanburg, SC 29306 $90,000 1,072 sq. ft. $84
2017-03-07 Single Family Craftsman 780 Old Canaan Rd Spartanburg, SC 29306 $165,900 1,757 sq. ft. 26,136 sq. ft. $94
2017-03-06 Single Family Craftsman 197 Bullington Road Spartanburg, SC 29306 $168,000 1,762 sq. ft. 26,136 sq. ft. $95
2017-03-06 Single Family Traditional 244 Lake Forest Drive Spartanburg, SC 29307 $259,900 3,719 sq. ft. 26,136 sq. ft. $70
2017-03-06 Single Family Bungalow 119 1st Avenue Spartanburg, SC 29302 $81,900 1,100 sq. ft. 13,068 sq. ft. $74
2017-03-06 Single Family Ranch 908 Ansel Spartanburg, SC 29306 $34,900 1,100 sq. ft. $32
2017-03-06 Single Family Traditional 814 Oakcrest Road Spartanburg, SC 29301 $350,000 3,107 sq. ft. 26,572 sq. ft. $113
2017-03-05 Single Family 410 Abington Way Spartanburg, SC 29301 $189,900 2,890 sq. ft. 8,276 sq. ft. $66
2017-03-04 Single Family Ranch 503 Gaston Spartanburg, SC 29307 $119,900 1,611 sq. ft. 17,424 sq. ft. $74
2017-03-04 Single Family Ranch 129 Shelton Drive Spartanburg, SC 29307 $147,000 1,632 sq. ft. 17,424 sq. ft. $90
2017-03-03 Single Family Traditional 926 Emerald Springs Drive Spartanburg, SC 29316 $134,900 1,563 sq. ft. $86
2017-03-03 Single Family Tri-Level 125 Heather Drive Spartanburg, SC 29301 $132,000 1,661 sq. ft. 16,117 sq. ft. $79
2017-03-03 Single Family Traditional 405 Thornhill Drive Spartanburg, SC 29301 $249,900 2,689 sq. ft. $93
2017-03-03 Single Family Traditional 418 Dellwater Way Spartanburg, SC 29306 $140,900 1,966 sq. ft. $72
2017-03-03 Single Family Ranch 122 Chester Street Spartanburg, SC 29301 $44,900 1,449 sq. ft. 11,761 sq. ft. $31
2017-03-03 Single Family Ranch 430 Grand Duke Drive Spartanburg, SC 29301 $104,900 1,360 sq. ft. 19,166 sq. ft. $77
2017-03-03 Single Family Bungalow 472 Sloan Street Spartanburg, SC 29303 $92,500 1,506 sq. ft. 5,227 sq. ft. $61
2017-03-02 Single Family Ranch 330 Lockport Way Spartanburg, SC 29301 $119,900 1,200 sq. ft. 8,276 sq. ft. $100
2017-03-02 Single Family Traditional 340 Hidden Creek Circle Spartanburg, SC 29306 $600,000 4,623 sq. ft. 32,234 sq. ft. $130
2017-03-02 Single Family Traditional 509 Overland Drive Spartanburg, SC 29307 $198,000 2,415 sq. ft. $82
2017-03-01 Single Family Traditional 174 Riverrun Drive Spartanburg, SC 29303 $145,000 1,350 sq. ft. 7,841 sq. ft. $107
2017-03-01 Single Family Ranch 311 Carnahan Drive Spartanburg, SC 29306 $147,900 1,820 sq. ft. 8,712 sq. ft. $81
2017-03-01 Single Family Bungalow 709 Maple Street Spartanburg, SC 29302 $230,000 2,342 sq. ft. 6,970 sq. ft. $98
2017-03-01 Single Family Bungalow 731 Maple Street Spartanburg, SC 29302 $139,500 1,409 sq. ft. $99
2017-03-01 Single Family 228 Pierpont Ave Spartanburg, SC 29303 $29,900 1,100 sq. ft. 10,454 sq. ft. $27
2017-03-01 Single Family 305 Ridgewood Avenue Spartanburg, SC 29301 $39,900 1,245 sq. ft. $32
2017-02-28 Single Family Traditional 112 Sycamore Court Spartanburg, SC 29302 $349,500 3,389 sq. ft. 41,818 sq. ft. $103
2017-02-28 Single Family Craftsman 307 Wilmont Street Spartanburg, SC 29306 $114,900 1,410 sq. ft. 9,583 sq. ft. $81
2017-02-28 Single Family Ranch 668 Beaumont Ave Spartanburg, SC 29303 $49,900 1,146 sq. ft. 14,375 sq. ft. $44
2017-02-27 Single Family 728 Fulton Ave Spartanburg, SC 29303 $30,000 1,316 sq. ft. $23
2017-02-24 Single Family Traditional 190 Carolina Avenue Spartanburg, SC 29306 $39,900 782 sq. ft. $51
2017-02-24 Single Family Ranch 107 Penarth Road Spartanburg, SC 29301 $130,000 1,783 sq. ft. $73
2017-02-24 Single Family Ranch 2690 Glen Springs Road Spartanburg, SC 29302 $133,500 1,711 sq. ft. 50,094 sq. ft. $78
2017-02-24 Single Family Traditional 522 Norwood Street Spartanburg, SC 29302 $178,500 1,963 sq. ft. $91
2017-02-24 Single Family Log Home 275 Montgomery Drive Spartanburg, SC 29302 $3,875,000 5,128 sq. ft. 1,010,592 sq. ft. $756
2017-02-23 Single Family Traditional 1369 Pinecrest Road Spartanburg, SC 29302 $447,500 3,700 sq. ft. 61,420 sq. ft. $121
2017-02-23 Single Family Traditional 124 Montgomery Drive Spartanburg, SC 29302 $799,000 5,764 sq. ft. 46,609 sq. ft. $139
2017-02-22 Single Family Bungalow 120 Southstar Street Spartanburg, SC 29301 $20,000 980 sq. ft. $20
2017-02-22 Single Family Bungalow 166 Williams Street Spartanburg, SC 29301 $40,000 1,110 sq. ft. $36
2017-02-22 Single Family Ranch 1580 Bud Arthur Bridge Road Spartanburg, SC 29307 $107,777 1,430 sq. ft. 43,560 sq. ft. $75
2017-02-22 Single Family Traditional 631 Goldmine Rd Spartanburg, SC 29307 $145,000 2,600 sq. ft. 47,045 sq. ft. $56
2017-02-22 Single Family Rustic 404 Hunters Trail Spartanburg, SC 29301 $295,000 3,363 sq. ft. 113,256 sq. ft. $88
2017-02-21 Single Family Traditional 3270 Southport Road Spartanburg, SC 29302 $69,900 1,525 sq. ft. 81,893 sq. ft. $46
2017-02-21 Single Family Ranch 416 Crescent Avenue Spartanburg, SC 29306 $65,000 1,194 sq. ft. 10,454 sq. ft. $54
2017-02-21 Single Family Traditional; Craftsman 111 Radcliff Way Spartanburg, SC 29301 $267,000 2,674 sq. ft. $100
2017-02-21 Single Family Bungalow 303 Old Converse Road Spartanburg, SC 29307 $49,900 1,336 sq. ft. 19,602 sq. ft. $37
2017-02-20 Single Family Traditional 431 Patterson Road Spartanburg, SC 29307 $249,900 2,500 sq. ft. 190,357 sq. ft. $100
2017-02-17 Single Family Traditional 164 Woodridge Drive Spartanburg, SC 29301 $324,900 2,762 sq. ft. 41,382 sq. ft. $118
2017-02-17 Single Family Craftsman 602 Cub Branch Drive Spartanburg, SC 29301 $269,900 2,602 sq. ft. 10,890 sq. ft. $104
2017-02-17 Single Family Craftsman 638 Cub Branch Drive Spartanburg, SC 29301 $259,700 2,300 sq. ft. 10,890 sq. ft. $113
2017-02-16 Single Family Craftsman 634 Cub Branch Drive Spartanburg, SC 29301 $233,100 1,880 sq. ft. 8,712 sq. ft. $124
2017-02-15 Single Family Ranch 3331 Robin Hood Drive Spartanburg, SC 29302 $114,000 1,248 sq. ft. 44,431 sq. ft. $91
2017-02-15 Single Family Bungalow 1537 Farley Avenue Ext Spartanburg, SC 29301 $54,900 928 sq. ft. 20,473 sq. ft. $59
2017-02-15 Single Family Craftsman 630 Cub Branch Drive Spartanburg, SC 29301 $243,200 2,150 sq. ft. $113
2017-02-15 Single Family Ranch; Traditional 112 Romaine Drive Spartanburg, SC 29307 $192,500 3,038 sq. ft. 39,640 sq. ft. $63
2017-02-15 Single Family Bungalow 3191 Stone Station Rd Spartanburg, SC 29306 $94,900 1,178 sq. ft. 130,244 sq. ft. $81
2017-02-14 Single Family Ranch 229 Idlewood Circle Spartanburg, SC 29307 $105,000 1,400 sq. ft. $75
2017-02-14 Single Family Craftsman 304 Ackworth Lane Spartanburg, SC 29301 $349,000 3,086 sq. ft. 9,148 sq. ft. $113
2017-02-14 Single Family Craftsman 321 Ackworth Lane Spartanburg, SC 29301 $247,000 1,600 sq. ft. $154
2017-02-14 Single Family Traditional 603 Cub Branch Dr Spartanburg, SC 29301 $253,200 2,165 sq. ft. $117
2017-02-14 Single Family Contemporary 103 Wood Lily Lane Spartanburg, SC 29307 $498,500 4,774 sq. ft. $104
2017-02-14 Single Family Bungalow 116 South Ave Spartanburg, SC 29306 $39,900 1,268 sq. ft. 22,216 sq. ft. $31
2017-02-14 Single Family Ranch 107 Greenbriar Road Spartanburg, SC 29302 $149,900 1,953 sq. ft. $77
2017-02-10 Single Family Ranch; Traditional 102 Thornhill Drive Spartanburg, SC 29301 $291,900 3,076 sq. ft. 43,124 sq. ft. $95
2017-02-10 Single Family Country 125 Brunson Road.Police Club Rd Spartanburg, SC 29303 $158,900 2,000 sq. ft. 1,045,440 sq. ft. $79
2017-02-10 Single Family Ranch 608 Camelot Dr Spartanburg, SC 29301 $139,900 1,640 sq. ft. 10,454 sq. ft. $85
2017-02-10 Single Family Ranch 219 Metcalf Ct Spartanburg, SC 29306 $159,900 1,440 sq. ft. 21,780 sq. ft. $111
2017-02-10 Single Family 2268 Avondale Spartanburg, SC 29302 $99,999 1,375 sq. ft. 13,068 sq. ft. $73
2017-02-10 Single Family Ranch 808 Beverly Dr Spartanburg, SC 29303 $54,900 1,680 sq. ft. 10,890 sq. ft. $33
2017-02-10 Single Family Ranch 208 Gordon Drive Spartanburg, SC 29301 $164,900 2,374 sq. ft. 54,886 sq. ft. $69
2017-02-09 Single Family Craftsman 102 Oxboro Court Spartanburg, SC 29306 $154,900 1,786 sq. ft. 10,890 sq. ft. $87
2017-02-09 Single Family Traditional 1130 Woodburn Rd Spartanburg, SC 29302 $2,000,000 7,226 sq. ft. 170,320 sq. ft. $277
2017-02-08 Single Family Victorian 546 Palmetto Street Spartanburg, SC 29302 $389,900 2,863 sq. ft. 13,068 sq. ft. $136
2017-02-08 Single Family Traditional; Tri-Level 515 Eastway Drive Spartanburg, SC 29307 $165,000 2,196 sq. ft. 23,087 sq. ft. $75
2017-02-07 Single Family Ranch 338 Fairlane Drive Spartanburg, SC 29307 $152,900 1,810 sq. ft. 27,878 sq. ft. $84
2017-02-06 Single Family Traditional 488 Blairwood Ct Spartanburg, SC 29303 $144,900 1,430 sq. ft. $101
2017-02-06 Single Family Traditional 455 Blairwood Ct Spartanburg, SC 29303 $135,900 1,320 sq. ft. $103
2017-02-06 Single Family Traditional 452 Blairwood Ct Spartanburg, SC 29303 $123,900 1,050 sq. ft. $118
2017-02-05 Single Family Traditional 72 Casey Lane Spartanburg, SC 29301 $174,900 1,863 sq. ft. 48,787 sq. ft. $94
2017-02-03 Single Family 519 Verdae Drive Spartanburg, SC 29301 $385,000 3,006 sq. ft. 21,344 sq. ft. $128
2017-02-03 Single Family Ranch 163 Old Petrie Rd Spartanburg, SC 29307 $97,900 1,150 sq. ft. $85
2017-02-03 Single Family Bungalow 317 East Park Ave Spartanburg, SC 29306 $89,900 1,029 sq. ft. $87
2017-02-03 Single Family Ranch 143 Dover Road Spartanburg, SC 29301 $169,500 2,362 sq. ft. $72
2017-02-03 Single Family Contemporary 546 Abington Way Spartanburg, SC 29301 $159,000 2,164 sq. ft. 8,276 sq. ft. $73
2017-02-02 Single Family Traditional 112 Dares Ferry Road Spartanburg, SC 29302 $360,900 4,500 sq. ft. 26,136 sq. ft. $80
2017-02-02 Single Family Ranch; Traditional 3005 Country Club Rd Spartanburg, SC 29302 $119,900 1,539 sq. ft. 33,541 sq. ft. $78
2017-02-02 Single Family Bungalow 2111 Cannons Campground Rd Spartanburg, SC 29307 $84,900 1,070 sq. ft. 11,761 sq. ft. $79
2017-02-02 Single Family Traditional 425 Briarwood Road Spartanburg, SC 29301 $99,900 1,750 sq. ft. 25,265 sq. ft. $57
2017-02-01 Single Family Traditional 436 Ransdell Dr Spartanburg, SC 29307 $189,500 2,726 sq. ft. $70
2017-02-01 Single Family 522 Converse St Spartanburg, SC 29306 $59,900 1,170 sq. ft. $51
2017-02-01 Single Family Traditional 159 Caroway Court Spartanburg, SC 29303 $160,000 1,892 sq. ft. 11,326 sq. ft. $85
2017-01-31 Single Family Craftsman 199 Old Howard Gap Road Spartanburg, SC 29303 $50,000 1,716 sq. ft. 21,780 sq. ft. $29
2017-01-31 Single Family Ranch 690 Thompson Chapel Road Spartanburg, SC 29307 $699,900 2,700 sq. ft. 3,376,336 sq. ft. $259
2017-01-31 Single Family Bungalow 489 Peronneau Spartanburg, SC 29306 $118,900 1,483 sq. ft. $80
2017-01-31 Single Family Colonial 209 Mills Avenue Spartanburg, SC 29302 $299,000 3,665 sq. ft. $82
2017-01-31 Single Family Ranch 108 Fieldstone Road Spartanburg, SC 29301 $143,500 1,912 sq. ft. 17,860 sq. ft. $75
2017-01-30 Single Family European 105 Hollyridge Rd Spartanburg, SC 29301 $914,900 5,728 sq. ft. 51,836 sq. ft. $160
2017-01-30 Single Family Ranch 1631 Goldmine Road Spartanburg, SC 29307 $123,900 952 sq. ft. 474,368 sq. ft. $130
2017-01-30 Single Family Bungalow 2430 Wallace Avenue Spartanburg, SC 29302 $75,000 1,060 sq. ft. 8,712 sq. ft. $71
2017-01-30 Single Family Traditional 3612 Cowpens Pacolet Rd Spartanburg, SC 29307 $195,000 1,816 sq. ft. 696,960 sq. ft. $107
2017-01-28 Single Family European 1147 Edisto Dr Spartanburg, SC 29302 $219,500 3,346 sq. ft. $66
2017-01-28 Single Family Traditional; Craftsman 712 Cerons St Spartanburg, SC 29301 $198,990 2,635 sq. ft. $76
2017-01-27 Single Family Traditional 100 Mabry Drive Spartanburg, SC 29307 $339,000 4,252 sq. ft. $80
2017-01-26 Single Family Ranch 107 Shannon Drive Spartanburg, SC 29301 $172,500 2,480 sq. ft. 24,829 sq. ft. $70
2017-01-26 Single Family Traditional 343 Harrell Drive Spartanburg, SC 29307 $165,000 2,776 sq. ft. $59
2017-01-26 Single Family Split Level 100 Lancer Court Spartanburg, SC 29301 $105,000 1,789 sq. ft. 11,761 sq. ft. $59
2017-01-25 Single Family Traditional 257 Winfield Drive Spartanburg, SC 29307 $139,900 2,843 sq. ft. 24,829 sq. ft. $49
2017-01-25 Single Family Ranch 192 King Line Spartanburg, SC 29302 $12,900 1,152 sq. ft. 13,068 sq. ft. $11
2017-01-24 Single Family Traditional 3050 Main Street Ext Spartanburg, SC 29307 $124,900 1,475 sq. ft. 30,928 sq. ft. $85
2017-01-22 Single Family Ranch 4921 Blackstock Spartanburg, SC 29303 $129,900 1,829 sq. ft. 42,689 sq. ft. $71
2017-01-21 Single Family Ranch; Traditional 116 Applewood Lane Spartanburg, SC 29307 $131,900 2,045 sq. ft. 17,424 sq. ft. $64
2017-01-19 Single Family 228 Boundary Drive Spartanburg, SC 29303 $15,000 920 sq. ft. $16
2017-01-18 Single Family Ranch 118 Bagwell Farm Road Spartanburg, SC 29302 $214,900 2,215 sq. ft. $97
2017-01-18 Single Family Bungalow 160 Ivy Street Spartanburg, SC 29302 $169,900 1,226 sq. ft. $139
2017-01-18 Single Family Ranch 3329 Robin Hood Drive Spartanburg, SC 29302 $110,000 2,039 sq. ft. $54
2017-01-18 Single Family Traditional 461 Fairview Ave Ext Spartanburg, SC 29302 $238,950 2,187 sq. ft. $109
2017-01-18 Single Family Ranch 127 Huxley Street Spartanburg, SC 29303 $79,900 1,366 sq. ft. $58
2017-01-17 Single Family Salt Box 134 Dolphin Drive Spartanburg, SC 29307 $362,000 4,985 sq. ft. 31,363 sq. ft. $73
2017-01-17 Single Family Ranch 1053 Maryland Ave Spartanburg, SC 29307 $129,900 1,405 sq. ft. 13,504 sq. ft. $92
2017-01-16 Single Family Traditional 2841 Country Club Road Spartanburg, SC 29302 $152,000 2,005 sq. ft. 9,148 sq. ft. $76
2017-01-16 Single Family Ranch 701 Ravenel St Spartanburg, SC 29302 $65,000 1,120 sq. ft. $58
2017-01-16 Single Family Cape Cod 405 Hale Street Spartanburg, SC 29302 $258,000 2,463 sq. ft. $105
2017-01-14 Single Family Traditional; Craftsman 2062 Pomerol Drive Spartanburg, SC 29301 $197,990 2,635 sq. ft. $75
2017-01-13 Single Family Traditional 101 Vermillian Drive Spartanburg, SC 29306 $131,900 1,590 sq. ft. 8,712 sq. ft. $83
2017-01-12 Single Family Ranch 258 Pierpont Avenue Spartanburg, SC 29303 $69,500 1,216 sq. ft. 11,761 sq. ft. $57
2017-01-12 Single Family Traditional 104 Cypress Lane S Spartanburg, SC 29307 $221,000 2,492 sq. ft. 33,106 sq. ft. $89
2017-01-10 Single Family Charleston 809 Palmetto Street Spartanburg, SC 29302 $319,000 2,080 sq. ft. $153
2017-01-10 Single Family Tri-Level 1694 Nazareth Church Road Spartanburg, SC 29301 $232,500 2,531 sq. ft. 318,424 sq. ft. $92
2017-01-10 Single Family Contemporary 380 Montagu Dr Spartanburg, SC 29301 $999,000 6,444 sq. ft. 287,496 sq. ft. $155
2017-01-09 Single Family Traditional 531 Wooden Duck Street Spartanburg, SC 29303 $127,500 1,282 sq. ft. 6,970 sq. ft. $99
2017-01-09 Single Family Traditional 716 Oglesby Creekdr Spartanburg, SC 29303 $139,900 1,325 sq. ft. $106
2017-01-09 Single Family Contemporary 380 Montagu Spartanburg, SC 29301 $999,000 6,000 sq. ft. 287,496 sq. ft. $166
2017-01-07 Single Family Craftsman 720 Corwallis Road Spartanburg, SC 29306 $264,900 2,517 sq. ft. 27,007 sq. ft. $105
2017-01-06 Single Family Ranch 119 Loche Adele Dr Spartanburg, SC 29307 $67,000 1,744 sq. ft. 15,682 sq. ft. $38
2017-01-03 Single Family Bungalow; Traditional 355 Farley Street Spartanburg, SC 29303 $37,500 1,460 sq. ft. 5,227 sq. ft. $26
2017-01-03 Single Family Ranch 183 Stribling Circle Spartanburg, SC 29301 $159,999 2,085 sq. ft. $77
2017-01-03 Single Family Traditional 734 Glendalyn Avenue Spartanburg, SC 29302 $639,900 3,814 sq. ft. 13,068 sq. ft. $168
2017-01-02 Single Family Traditional 632 Crystal Dr Spartanburg, SC 29302 $239,900 2,900 sq. ft. 21,780 sq. ft. $83
2017-01-02 Single Family Cape Cod 270 Watervale Drive Spartanburg, SC 29301 $328,900 3,245 sq. ft. 147,233 sq. ft. $101
2016-12-28 Single Family Ranch 556 Holly Run Ct Spartanburg, SC 29303 $94,500 1,008 sq. ft. 22,651 sq. ft. $94
2016-12-28 Single Family Ranch 843 Thackston Drive Spartanburg, SC 29307 $152,500 2,232 sq. ft. $68
2016-12-27 Single Family Ranch 375 Converse Street Spartanburg, SC 29306 $59,900 1,332 sq. ft. $45
2016-12-26 Single Family Ranch 196 Kensington Dr Spartanburg, SC 29306 $39,900 1,125 sq. ft. 5,663 sq. ft. $35
2016-12-21 Single Family Traditional 556 Norwood Street Spartanburg, SC 29302 $334,000 2,517 sq. ft. $133
2016-12-21 Single Family Ranch 137 Seabrook Drive Spartanburg, SC 29306 $138,500 1,624 sq. ft. 20,473 sq. ft. $85
2016-12-20 Single Family 1085 Prison Camp Rd Spartanburg, SC 29322 $325,000 1,650 sq. ft. $197
2016-12-20 Single Family Ranch 158 Cleveland Park Drive Spartanburg, SC 29303 $75,900 2,340 sq. ft. 22,651 sq. ft. $32
2016-12-19 Single Family Cape Cod 380 Forest Avenue Spartanburg, SC 29302 $128,500 1,578 sq. ft. $81
2016-12-16 Single Family Traditional 517 Bent Creek Lane Spartanburg, SC 29306 $184,900 2,176 sq. ft. 15,682 sq. ft. $85
2016-12-15 Single Family Tri-Level 1115 Edisto Drive Spartanburg, SC 29302 $265,000 3,139 sq. ft. $84
2016-12-15 Single Family Traditional 4 Yeamans Hall Ct Spartanburg, SC 29306 $649,900 5,343 sq. ft. 36,155 sq. ft. $122
2016-12-12 Single Family Ranch 724 California Avenue Spartanburg, SC 29303 $46,800 1,251 sq. ft. 12,197 sq. ft. $37
2016-12-12 Single Family Ranch 18 Brookland Court Spartanburg, SC 29301 $161,000 1,783 sq. ft. 30,056 sq. ft. $90
2016-12-09 Single Family Ranch 108 Dover Rd Spartanburg, SC 29301 $99,500 1,668 sq. ft. 18,295 sq. ft. $60
2016-12-09 Single Family Traditional 866 Inverness Circle Spartanburg, SC 29306 $550,000 4,589 sq. ft. 30,928 sq. ft. $120
2016-12-09 Single Family Contemporary 453 Carolina Dr Spartanburg, SC 29306 $146,900 1,430 sq. ft. 25,265 sq. ft. $103
2016-12-09 Single Family Cottage 119 Hidden Ridge Drive Spartanburg, SC 29301 $173,000 1,588 sq. ft. $109
2016-12-08 Single Family Georgian 1870 Fernwood Glendale Rd Spartanburg, SC 29307 $1,200,000 6,900 sq. ft. 348,480 sq. ft. $174
2016-12-08 Single Family Split Level 207 St. Matthews Spartanburg, SC 29301 $64,100 1,609 sq. ft. $40
2016-12-07 Single Family Contemporary 210 Fernbrook Circle Spartanburg, SC 29307 $225,000 3,000 sq. ft. $75
2016-12-07 Single Family Cottage 770 Otis Boulevard Spartanburg, SC 29302 $462,500 3,444 sq. ft. $134
2016-12-07 Single Family 104 Canaan Church Rd Spartanburg, SC 29306 $94,900 1,152 sq. ft. 948,737 sq. ft. $82
2016-12-06 Single Family Bungalow 199 Brookwood Terrace Spartanburg, SC 29306 $75,900 1,404 sq. ft. 5,227 sq. ft. $54
2016-12-06 Single Family Traditional 301 Mossycup Oak Court Spartanburg, SC 29306 $489,000 3,577 sq. ft. 48,787 sq. ft. $137
2016-12-05 Single Family Bungalow 719 Connecticut Avenue Spartanburg, SC 29302 $164,000 1,446 sq. ft. $113
2016-12-02 Single Family Traditional 212 Bandallon Place Spartanburg, SC 29316 $154,900 1,264 sq. ft. $123
2016-12-02 Single Family Traditional 336 Kennesaw Court Spartanburg, SC 29301 $425,000 3,099 sq. ft. 23,087 sq. ft. $137
2016-12-01 Single Family Traditional 311 Clevedale Court Spartanburg, SC 29301 $299,000 2,736 sq. ft. 37,462 sq. ft. $109
2016-12-01 Single Family 562 Arlington St Spartanburg, SC 29303 $75,000 1,246 sq. ft. $60
2016-12-01 Single Family 538 Arlington St Spartanburg, SC 29303 $75,000 1,022 sq. ft. $73
2016-12-01 Single Family Bungalow 452 Zephyr Street Spartanburg, SC 29301 $19,900 1,060 sq. ft. $19
2016-12-01 Single Family Craftsman 654 Cub Branch Drive Spartanburg, SC 29301 $229,781 1,883 sq. ft. 9,583 sq. ft. $122
2016-11-30 Single Family Ranch 140 Ranson Avenue Spartanburg, SC 29302 $95,000 2,645 sq. ft. 25,265 sq. ft. $36
2016-11-30 Single Family Traditional 508 Traversie Ct Spartanburg, SC 29306 $163,900 1,400 sq. ft. $117
2016-11-29 Single Family Traditional 106 Silverdale Drive Spartanburg, SC 29301 $194,999 1,825 sq. ft. 26,136 sq. ft. $107
2016-11-28 Single Family Ranch 452 Royal Oak Drive Spartanburg, SC 29302 $110,000 1,954 sq. ft. 17,424 sq. ft. $56
2016-11-24 Single Family Ranch 1005 Lucerne Dr Spartanburg, SC 29302 $139,000 1,699 sq. ft. 40,946 sq. ft. $82
2016-11-22 Single Family Craftsman 663 Cub Branch Drive Spartanburg, SC 29301 $258,650 2,116 sq. ft. 9,583 sq. ft. $122
2016-11-22 Single Family Craftsman 655 Cub Branch Drive Spartanburg, SC 29349 $243,200 2,116 sq. ft. 9,148 sq. ft. $115
2016-11-22 Single Family Traditional 805 Laurel Bluff Spartanburg, SC 29301 $282,000 2,956 sq. ft. 32,670 sq. ft. $95
2016-11-22 Single Family Williamsburg 1001 Four Mile Branch Road Spartanburg, SC 29302 $1,300,000 6,502 sq. ft. 304,920 sq. ft. $200
2016-11-22 Single Family Traditional 70 Sara Lynn Court Spartanburg, SC 29307 $209,900 2,122 sq. ft. 54,450 sq. ft. $99
2016-11-18 Single Family Ranch 2027 Center Street Spartanburg, SC 29303 $80,000 1,225 sq. ft. $65
2016-11-15 Single Family 1214 Shadowood Dr Spartanburg, SC 29301 $279,900 2,420 sq. ft. $116
2016-11-14 Single Family Contemporary 503 Traversie Ct Spartanburg, SC 29306 $164,900 1,468 sq. ft. 21,780 sq. ft. $112
2016-11-11 Single Family Ranch 1260 Old Pacolet Road Spartanburg, SC 29307 $49,000 801 sq. ft. $61
2016-11-10 Single Family Craftsman 450 Arcadia St Spartanburg, SC 29301 $78,900 1,180 sq. ft. 6,534 sq. ft. $67
2016-11-08 Single Family Traditional 729 Otis Boulevard Spartanburg, SC 29302 $304,900 3,311 sq. ft. $92
2016-11-03 Single Family Traditional 553 Palmetto St Spartanburg, SC 29302 $399,900 3,167 sq. ft. $126
2016-11-02 Single Family Bungalow 110 Rosemary Road Spartanburg, SC 29301 $73,900 1,026 sq. ft. $72
2016-10-31 Single Family Ranch 409 Ransdell Dr Spartanburg, SC 29307 $192,500 2,784 sq. ft. 23,087 sq. ft. $69
2016-10-31 Single Family Bungalow 355 Saint Andrews Street Spartanburg, SC 29306 $47,500 1,300 sq. ft. 8,276 sq. ft. $37
2016-10-24 Single Family Traditional 727 Oglesby Creek Lane Spartanburg, SC 29303 $137,900 1,372 sq. ft. $101
2016-10-21 Single Family Ranch 214 Queensbury Way Spartanburg, SC 29302 $85,900 1,226 sq. ft. $70
2016-10-20 Single Family Ranch 8302 Fairforest Road Spartanburg, SC 29303 $65,000 2,164 sq. ft. 65,776 sq. ft. $30
2016-10-18 Single Family Tri-Level 559 Magness Drive Spartanburg, SC 29303 $94,900 1,542 sq. ft. $62
2016-10-14 Single Family Traditional 841 Oakcrest Road Spartanburg, SC 29301 $365,000 3,347 sq. ft. 41,382 sq. ft. $109
2016-10-13 Single Family European 443 Twin Springs Road Spartanburg, SC 29301 $499,900 6,176 sq. ft. 22,651 sq. ft. $81
2016-10-13 Single Family Bungalow 528 Lucerne Dr Spartanburg, SC 29302 $81,000 1,386 sq. ft. $58
2016-10-12 Single Family Traditional 215 Bent Oak Way Spartanburg, SC 29301 $326,900 3,173 sq. ft. 36,155 sq. ft. $103
2016-10-12 Single Family Traditional 715 Birkhall Court Spartanburg, SC 29301 $169,000 2,233 sq. ft. 7,841 sq. ft. $76
2016-10-11 Single Family Ranch 151 Huxley Street Spartanburg, SC 29303 $106,500 2,148 sq. ft. 16,988 sq. ft. $50
2016-10-11 Single Family Ranch 1421 Grant Circle Spartanburg, SC 29307 $85,000 1,120 sq. ft. $76
2016-10-11 Single Family Ranch 9 Brookside Park Spartanburg, SC 29301 $89,900 3,712 sq. ft. 217,800 sq. ft. $24
2016-10-10 Single Family Ranch 101 Beech Tree Court Spartanburg, SC 29302 $550,000 6,289 sq. ft. 107,593 sq. ft. $87
2016-10-10 Single Family Traditional 608 Old Iron Works Road Spartanburg, SC 29302 $349,000 3,662 sq. ft. 44,867 sq. ft. $95
2016-10-08 Single Family Traditional 108 Woodwind Drive Spartanburg, SC 29302 $244,900 2,670 sq. ft. 58,370 sq. ft. $92
2016-10-06 Single Family Ranch 546 Twin Dr Spartanburg, SC 29302 $274,900 2,410 sq. ft. $114
2016-10-06 Single Family Traditional 508 Verdae Drive Spartanburg, SC 29301 $719,000 6,432 sq. ft. 27,878 sq. ft. $112
2016-10-06 Single Family Ranch 1070 Otis Boulevard Spartanburg, SC 29302 $179,500 1,850 sq. ft. 10,454 sq. ft. $97
2016-10-04 Single Family Contemporary; Traditional 245 Indian Wells Drive Spartanburg, SC 29306 $510,000 3,928 sq. ft. 54,014 sq. ft. $130
2016-10-03 Single Family Traditional 1419 Boiling Springs Road Spartanburg, SC 29303 $299,900 2,647 sq. ft. 227,819 sq. ft. $113
2016-10-03 Single Family Log Home 145 Pepperidge Drive Spartanburg, SC 29303 $399,000 2,900 sq. ft. 110,642 sq. ft. $138
2016-09-30 Single Family Contemporary 274 Caulder Circle Spartanburg, SC 29306 $45,000 952 sq. ft. $47
2016-09-29 Single Family Traditional 508 Magnolia Blossom Court Spartanburg, SC 29301 $385,777 2,650 sq. ft. 32,234 sq. ft. $146
2016-09-28 Single Family Georgian 159 Saint Andrews Dr (Orig. Lot 10 + Opt To Buy Lot 9) Spartanburg, SC 29306 $795,000 6,218 sq. ft. 37,462 sq. ft. $128
2016-09-27 Single Family Craftsman 634 Otis Blvd Spartanburg, SC 29302 $399,900 2,675 sq. ft. $150
2016-09-27 Single Family Traditional 323 Rivermont Drive Spartanburg, SC 29302 $169,500 2,200 sq. ft. $77
2016-09-27 Single Family Bungalow 525 Norwood Street Spartanburg, SC 29302 $159,900 1,264 sq. ft. 5,227 sq. ft. $126
2016-09-27 Single Family Traditional 208 Singing Woods Lane Spartanburg, SC 29301 $109,900 1,500 sq. ft. 10,454 sq. ft. $73
2016-09-22 Single Family Traditional 554 Palmetto Street Spartanburg, SC 29302 $224,900 2,030 sq. ft. $111
2016-09-20 Single Family Ranch 702 Keltner Avenue Spartanburg, SC 29302 $124,900 1,404 sq. ft. 14,810 sq. ft. $89
2016-09-19 Single Family Cottage 439 Forest Avenue Spartanburg, SC 29302 $119,000 1,328 sq. ft. $90
2016-09-15 Single Family 610 Farley Ave Spartanburg, SC 29301 $24,900 1,510 sq. ft. 12,197 sq. ft. $16
2016-09-13 Single Family Traditional 1415 Thornwood Spartanburg, SC 29302 $675,000 4,599 sq. ft. 95,832 sq. ft. $147
2016-09-13 Single Family Ranch 2901 Cedar Springs Road Spartanburg, SC 29302 $114,900 1,128 sq. ft. 21,780 sq. ft. $102
2016-09-06 Single Family Bungalow 321 Ridgewood Ave Spartanburg, SC 29306 $39,900 1,281 sq. ft. $31
2016-09-01 Single Family 309 Autumn Glen Drive Spartanburg, SC 29303 $209,306 2,787 sq. ft. $75
2016-08-30 Single Family 313 Autumn Glen Drive Spartanburg, SC 29303 $219,715 2,537 sq. ft. $87
2016-08-30 Single Family 268 Autumn Glen Drive Spartanburg, SC 29303 $194,912 2,235 sq. ft. $87
2016-08-24 Single Family Ranch 125 Providence Road Spartanburg, SC 29302 $184,900 1,839 sq. ft. 43,560 sq. ft. $101
2016-08-19 Single Family Traditional; Tri-Level 231 Hillbrook Drive Spartanburg, SC 29307 $239,900 3,666 sq. ft. 46,609 sq. ft. $65
2016-08-12 Single Family Bungalow 131 White Oak Road Spartanburg, SC 29301 $52,000 1,300 sq. ft. 16,553 sq. ft. $40
2016-08-10 Single Family Craftsman 626 Cub Branch Dr Spartanburg, SC 29301 $209,800 1,625 sq. ft. 10,890 sq. ft. $129
2016-08-08 Single Family Traditional 422 Fairview Ave Ext Spartanburg, SC 29302 $179,900 1,724 sq. ft. $104
2016-08-05 Single Family Traditional 234 Harrell Dr Spartanburg, SC 29307 $204,900 2,723 sq. ft. $75
2016-08-05 Single Family Traditional 224 Emory Road Spartanburg, SC 29307 $219,000 3,346 sq. ft. $65
2016-08-04 Single Family Traditional 221 Woodglen Rd Spartanburg, SC 29301 $325,000 3,320 sq. ft. 48,787 sq. ft. $98
2016-08-03 Single Family Ranch 108 Plantation Dr Spartanburg, SC 29302 $619,000 4,089 sq. ft. 44,867 sq. ft. $151
2016-08-02 Single Family Ranch 148 Mount Zion Spartanburg, SC 29303 $140,000 2,151 sq. ft. 30,056 sq. ft. $65
2016-07-29 Single Family Traditional 535 Old Iron Works Road Spartanburg, SC 29302 $300,000 3,820 sq. ft. $79
2016-07-28 Single Family Craftsman 326 Serendipity Lane Spartanburg, SC 29301 $269,900 2,534 sq. ft. 12,632 sq. ft. $107
2016-07-27 Single Family Craftsman 358 Serendipity Lane Spartanburg, SC 29301 $279,900 2,532 sq. ft. 10,890 sq. ft. $111
2016-07-25 Single Family Traditional 355 Montgomery Drive Spartanburg, SC 29302 $444,000 3,862 sq. ft. 120,226 sq. ft. $115
2016-07-25 Single Family Ranch 110 Robin Court Spartanburg, SC 29303 $159,900 1,500 sq. ft. 21,780 sq. ft. $107
2016-07-25 Single Family Ranch; Rustic 123 Old Lowe Ct Spartanburg, SC 29303 $110,000 2,030 sq. ft. 62,291 sq. ft. $54
2016-07-22 Single Family Craftsman 225 Radcliff Way Spartanburg, SC 29301 $240,000 2,132 sq. ft. 6,970 sq. ft. $113
2016-07-21 Single Family Ranch 304 Fernwood Drive Spartanburg, SC 29307 $157,000 2,500 sq. ft. 16,988 sq. ft. $63
2016-07-19 Single Family Traditional 413 Woodgrove Trace Spartanburg, SC 29301 $266,000 2,900 sq. ft. $92
2016-07-11 Single Family Ranch 171 Cannon Drive Spartanburg, SC 29307 $79,500 1,080 sq. ft. 23,087 sq. ft. $74
2016-07-11 Single Family Ranch 336 Weblin St Spartanburg, SC 29306 $119,900 2,081 sq. ft. 32,234 sq. ft. $58
2016-07-07 Single Family Ranch 223 Anita Drive Spartanburg, SC 29302 $142,900 3,667 sq. ft. 19,602 sq. ft. $39
2016-07-01 Single Family Traditional 1415 Thornwood Drive Spartanburg, SC 29302 $695,000 4,530 sq. ft. 95,832 sq. ft. $153
2016-07-01 Single Family Traditional 1041 W.O. Ezell Boulevard Spartanburg, SC 29301 $125,000 1,275 sq. ft. 60,984 sq. ft. $98
2016-06-29 Single Family Traditional 448 Blairwood Ct Spartanburg, SC 29303 $112,900 1,050 sq. ft. $108
2016-06-28 Single Family Bungalow 189 Converse Circle Spartanburg, SC 29302 $94,990 1,424 sq. ft. 7,405 sq. ft. $67
2016-06-21 Single Family Contemporary 286 Heathwood Drive Spartanburg, SC 29307 $335,000 4,535 sq. ft. $74
2016-06-15 Single Family Traditional 221 Swansea Road Spartanburg, SC 29307 $639,500 5,125 sq. ft. 40,946 sq. ft. $125
2016-06-14 Single Family Contemporary 1340 Pinecrest Rd Spartanburg, SC 29302 $725,000 3,729 sq. ft. 60,113 sq. ft. $194
2016-06-14 Single Family 2161 Chesnee Highway Spartanburg, SC 29303 $95,000 1,164 sq. ft. 41,382 sq. ft. $82
2016-06-13 Single Family Ranch 833 Beverly Drive Spartanburg, SC 29303 $92,500 1,342 sq. ft. $69
2016-06-11 Single Family Contemporary 219 Muirfield Drive Spartanburg, SC 29306 $599,000 6,136 sq. ft. 40,075 sq. ft. $98
2016-06-10 Single Family Split Level 104 Dalewood Drive Spartanburg, SC 29302 $189,500 3,600 sq. ft. 47,916 sq. ft. $53
2016-06-09 Single Family Ranch 209 Blackstock Road Spartanburg, SC 29301 $139,900 1,633 sq. ft. $86
2016-06-06 Single Family Traditional 214 Stonecliff Way Spartanburg, SC 29301 $176,000 1,630 sq. ft. 4,792 sq. ft. $108
2016-06-04 Single Family European 204 Hillsboro Trace Spartanburg, SC 29301 $799,900 5,450 sq. ft. 32,670 sq. ft. $147
2016-06-02 Single Family Contemporary; European 1 Twin Oaks Court Spartanburg, SC 29306 $949,000 6,831 sq. ft. 121,097 sq. ft. $139